Time;durP1;ratioP1;P1;durP2;ratioP2;P2;SDS_P1;SDS_P2;PMS_P1;PMS_P2;Temp;Humidity;BMP_temperature;BMP_pressure;BME280_temperature;BME280_humidity;BME280_pressure;Samples;Min_cycle;Max_cycle;Signal;HPM_P1;HPM_P2
2024/03/20 00:00:26;;;;;;;18.67;11.70;;;;;;;;;;4335633;32;334512;-70
2024/03/20 00:02:53;;;;;;;18.83;11.27;;;;;;;;;;4337225;32;318274;-70
2024/03/20 00:05:21;;;;;;;17.20;11.97;;;;;;;;;;4327397;32;360058;-69
2024/03/20 00:07:47;;;;;;;21.93;12.60;;;;;;;;;;4337699;32;318728;-71
2024/03/20 00:10:16;;;;;;;20.30;11.77;;;;;;;;;;4326466;32;318247;-70
2024/03/20 00:12:45;;;;;;;20.40;12.23;;;;;;;;;;4336021;32;342855;-70
2024/03/20 00:15:12;;;;;;;22.33;13.30;;;;;;;;;;4328075;32;318389;-70
2024/03/20 00:17:40;;;;;;;22.20;12.90;;;;;;;;;;4338266;32;318217;-70
2024/03/20 00:20:07;;;;;;;20.23;11.73;;;;;;;;;;4328352;32;317735;-71
2024/03/20 00:22:36;;;;;;;17.97;11.10;;;;;;;;;;4336074;32;318339;-70
2024/03/20 00:25:03;;;;;;;15.57;10.97;;;;;;;;;;4327639;32;337593;-69
2024/03/20 00:27:29;;;;;;;13.93;9.23;;;;;;;;;;4336788;32;317932;-69
2024/03/20 00:29:56;;;;;;;14.17;8.47;;;;;;;;;;4338403;32;317511;-69
2024/03/20 00:32:23;;;;;;;19.43;11.07;;;;;;;;;;4322348;32;416990;-70
2024/03/20 00:34:49;;;;;;;11.77;7.73;;;;;;;;;;4336839;32;318459;-69
2024/03/20 00:37:16;;;;;;;13.43;9.00;;;;;;;;;;4328458;32;317621;-71
2024/03/20 00:39:44;;;;;;;13.10;7.13;;;;;;;;;;4337205;32;317091;-70
2024/03/20 00:42:11;;;;;;;15.50;7.73;;;;;;;;;;4325799;32;317708;-69
2024/03/20 00:44:38;;;;;;;11.17;7.60;;;;;;;;;;4336956;32;317164;-70
2024/03/20 00:47:05;;;;;;;9.00;7.23;;;;;;;;;;4328589;32;317737;-70
2024/03/20 00:49:32;;;;;;;14.20;8.27;;;;;;;;;;4336190;32;316196;-70
2024/03/20 00:51:58;;;;;;;13.47;7.63;;;;;;;;;;4324580;32;352534;-69
2024/03/20 00:54:25;;;;;;;9.03;6.87;;;;;;;;;;4335819;32;317528;-71
2024/03/20 00:56:53;;;;;;;14.03;7.17;;;;;;;;;;4336993;32;315470;-71
2024/03/20 00:59:20;;;;;;;13.00;7.30;;;;;;;;;;4327722;32;318095;-70
2024/03/20 01:01:48;;;;;;;11.47;7.13;;;;;;;;;;4337931;32;317248;-70
2024/03/20 01:04:16;;;;;;;10.63;7.47;;;;;;;;;;4325508;32;317488;-70
2024/03/20 01:06:44;;;;;;;13.27;7.60;;;;;;;;;;4337545;32;317372;-69
2024/03/20 01:09:11;;;;;;;11.40;8.17;;;;;;;;;;4326976;32;317271;-71
2024/03/20 01:11:38;;;;;;;14.33;9.00;;;;;;;;;;4336304;32;317560;-70
2024/03/20 01:14:06;;;;;;;14.50;8.40;;;;;;;;;;4326880;32;317499;-70
2024/03/20 01:16:32;;;;;;;18.03;11.00;;;;;;;;;;4335115;32;317899;-70
2024/03/20 01:19:00;;;;;;;16.97;10.53;;;;;;;;;;4327643;32;318752;-73
2024/03/20 01:21:27;;;;;;;14.67;9.90;;;;;;;;;;4337426;32;318473;-70
2024/03/20 01:23:54;;;;;;;13.57;8.57;;;;;;;;;;4336280;32;316415;-71
2024/03/20 01:26:22;;;;;;;18.77;8.73;;;;;;;;;;4325041;32;317377;-70
2024/03/20 01:28:48;;;;;;;9.83;7.30;;;;;;;;;;4337804;32;317244;-70
2024/03/20 01:31:16;;;;;;;10.83;7.43;;;;;;;;;;4327562;32;316440;-71
2024/03/20 01:33:43;;;;;;;11.43;7.17;;;;;;;;;;4337282;32;317645;-71
2024/03/20 01:36:10;;;;;;;12.93;6.70;;;;;;;;;;4327294;32;316611;-70
2024/03/20 01:38:37;;;;;;;10.93;6.87;;;;;;;;;;4334953;32;317217;-72
2024/03/20 01:41:04;;;;;;;11.57;6.77;;;;;;;;;;4326830;32;331509;-71
2024/03/20 01:43:30;;;;;;;11.37;7.57;;;;;;;;;;4336760;32;334075;-73
2024/03/20 01:45:58;;;;;;;16.20;8.87;;;;;;;;;;4327585;32;317850;-71
2024/03/20 01:48:26;;;;;;;14.90;9.10;;;;;;;;;;4334908;32;317286;-70
2024/03/20 01:50:53;;;;;;;25.60;11.87;;;;;;;;;;4338227;32;317291;-70
2024/03/20 01:53:20;;;;;;;14.10;9.30;;;;;;;;;;4329360;32;318807;-70
2024/03/20 01:55:47;;;;;;;15.13;8.97;;;;;;;;;;4340244;32;316741;-70
2024/03/20 01:58:14;;;;;;;11.47;8.37;;;;;;;;;;4327392;32;317273;-70
2024/03/20 02:00:40;;;;;;;9.57;6.40;;;;;;;;;;4340233;32;324069;-70
2024/03/20 02:03:07;;;;;;;11.03;7.03;;;;;;;;;;4330626;32;316231;-70
2024/03/20 02:05:35;;;;;;;13.33;8.13;;;;;;;;;;4338984;32;317289;-70
2024/03/20 02:08:02;;;;;;;10.33;7.13;;;;;;;;;;4329387;32;317509;-70
2024/03/20 02:10:29;;;;;;;10.57;7.20;;;;;;;;;;4336514;32;317690;-70
2024/03/20 02:13:02;;;;;;;12.20;7.63;;;;;;;;;;4339779;32;317382;-71
2024/03/20 02:15:32;;;;;;;11.20;7.60;;;;;;;;;;4325632;32;416603;-69
2024/03/20 02:17:59;;;;;;;13.47;8.30;;;;;;;;;;4330114;32;317539;-70
2024/03/20 02:20:26;;;;;;;11.23;7.97;;;;;;;;;;4336824;32;317335;-71
2024/03/20 02:22:54;;;;;;;13.13;7.90;;;;;;;;;;4338016;32;336821;-70
2024/03/20 02:25:22;;;;;;;14.57;8.20;;;;;;;;;;4328950;32;317090;-70
2024/03/20 02:27:48;;;;;;;10.70;7.77;;;;;;;;;;4339326;32;317586;-69
2024/03/20 02:30:15;;;;;;;24.57;13.33;;;;;;;;;;4328010;32;317308;-71
2024/03/20 02:32:45;;;;;;;30.83;16.00;;;;;;;;;;4338066;32;317927;-70
2024/03/20 02:35:14;;;;;;;25.27;16.90;;;;;;;;;;4328542;32;318654;-69
2024/03/20 02:37:41;;;;;;;26.73;14.17;;;;;;;;;;4339639;32;318198;-72
2024/03/20 02:40:10;;;;;;;20.53;13.03;;;;;;;;;;4328642;32;318244;-69
2024/03/20 02:42:37;;;;;;;19.20;12.93;;;;;;;;;;4338598;32;318316;-70
2024/03/20 02:45:04;;;;;;;24.33;12.23;;;;;;;;;;4328708;32;318393;-70
2024/03/20 02:47:31;;;;;;;17.63;11.93;;;;;;;;;;4339487;32;318464;-70
2024/03/20 02:49:58;;;;;;;20.30;12.27;;;;;;;;;;4328480;32;317819;-73
2024/03/20 02:52:25;;;;;;;20.53;13.37;;;;;;;;;;4336174;32;318346;-70
2024/03/20 02:54:52;;;;;;;22.20;13.43;;;;;;;;;;4338993;32;333636;-72
2024/03/20 02:57:20;;;;;;;15.87;11.57;;;;;;;;;;4329842;32;318375;-70
2024/03/20 02:59:47;;;;;;;16.90;9.53;;;;;;;;;;4339445;32;317856;-70
2024/03/20 03:02:13;;;;;;;16.80;8.97;;;;;;;;;;4326873;32;317231;-70
2024/03/20 03:04:40;;;;;;;25.63;11.93;;;;;;;;;;4339083;32;316698;-71
2024/03/20 03:07:07;;;;;;;21.83;11.67;;;;;;;;;;4321507;32;318280;-70
2024/03/20 03:09:34;;;;;;;19.77;11.30;;;;;;;;;;4338641;32;318180;-70
2024/03/20 03:12:02;;;;;;;13.70;9.27;;;;;;;;;;4328340;32;318547;-70
2024/03/20 03:14:30;;;;;;;11.97;7.97;;;;;;;;;;4335970;32;318219;-69
2024/03/20 03:16:58;;;;;;;14.90;8.77;;;;;;;;;;4328760;32;317188;-70
2024/03/20 03:19:24;;;;;;;14.87;8.30;;;;;;;;;;4339716;32;317215;-71
2024/03/20 03:21:50;;;;;;;15.80;7.77;;;;;;;;;;4339510;32;317239;-71
2024/03/20 03:24:17;;;;;;;11.67;7.53;;;;;;;;;;4326127;32;317304;-70
2024/03/20 03:26:44;;;;;;;12.90;7.93;;;;;;;;;;4338153;32;317345;-70
2024/03/20 03:29:11;;;;;;;12.27;7.33;;;;;;;;;;4329687;32;317219;-72
2024/03/20 03:31:39;;;;;;;12.27;8.90;;;;;;;;;;4337568;32;317515;-70
2024/03/20 03:34:06;;;;;;;21.70;14.13;;;;;;;;;;4328206;32;317312;-70
2024/03/20 03:36:34;;;;;;;25.30;13.97;;;;;;;;;;4336935;32;318122;-70
2024/03/20 03:39:00;;;;;;;39.50;20.20;;;;;;;;;;4328277;32;327141;-70
2024/03/20 03:41:27;;;;;;;162.43;55.27;;;;;;;;;;4339131;32;318676;-70
2024/03/20 03:43:54;;;;;;;46.23;21.23;;;;;;;;;;4337761;32;319133;-72
2024/03/20 03:46:20;;;;;;;35.73;15.97;;;;;;;;;;4325203;32;318531;-72
2024/03/20 03:48:49;;;;;;;34.37;16.90;;;;;;;;;;4337571;32;317748;-70
2024/03/20 03:51:16;;;;;;;26.97;15.40;;;;;;;;;;4327712;32;318191;-71
2024/03/20 03:53:43;;;;;;;25.27;14.37;;;;;;;;;;4338365;32;317627;-71
2024/03/20 03:56:09;;;;;;;33.23;14.83;;;;;;;;;;4326828;32;318630;-70
2024/03/20 03:58:36;;;;;;;19.33;11.60;;;;;;;;;;4338157;32;317574;-70
2024/03/20 04:01:03;;;;;;;14.27;10.67;;;;;;;;;;4327586;32;318332;-70
2024/03/20 04:03:30;;;;;;;21.77;11.87;;;;;;;;;;4337369;32;318506;-71
2024/03/20 04:06:00;;;;;;;25.93;11.87;;;;;;;;;;4338816;32;319066;-71
2024/03/20 04:08:27;;;;;;;18.27;11.50;;;;;;;;;;4323610;32;419409;-70
2024/03/20 04:10:54;;;;;;;24.70;12.00;;;;;;;;;;4337897;32;318307;-70
2024/03/20 04:13:20;;;;;;;15.93;10.70;;;;;;;;;;4327541;32;317588;-71
2024/03/20 04:15:47;;;;;;;17.00;10.20;;;;;;;;;;4335546;32;317695;-70
2024/03/20 04:18:17;;;;;;;24.63;14.07;;;;;;;;;;4325452;32;318498;-70
2024/03/20 04:20:44;;;;;;;328.87;107.57;;;;;;;;;;4338447;32;318562;-71
2024/03/20 04:23:12;;;;;;;139.63;53.80;;;;;;;;;;4326845;32;320646;-73
2024/03/20 04:25:39;;;;;;;112.80;41.37;;;;;;;;;;4336802;32;319435;-71
2024/03/20 04:28:06;;;;;;;94.90;40.40;;;;;;;;;;4327328;32;319742;-71
2024/03/20 04:30:33;;;;;;;86.77;34.83;;;;;;;;;;4335066;32;318431;-70
2024/03/20 04:33:00;;;;;;;65.10;33.37;;;;;;;;;;4328137;32;318459;-73
2024/03/20 04:35:27;;;;;;;49.67;26.73;;;;;;;;;;4337130;32;318405;-71
2024/03/20 04:37:54;;;;;;;32.37;18.50;;;;;;;;;;4336678;32;318927;-72
2024/03/20 04:40:22;;;;;;;20.97;13.57;;;;;;;;;;4326176;32;318631;-71
2024/03/20 04:42:49;;;;;;;24.67;14.63;;;;;;;;;;4337481;32;318597;-71
2024/03/20 04:45:15;;;;;;;28.03;14.17;;;;;;;;;;4328038;32;319380;-71
2024/03/20 04:47:42;;;;;;;29.07;16.63;;;;;;;;;;4336951;32;318494;-72
2024/03/20 04:50:12;;;;;;;28.40;16.00;;;;;;;;;;4326137;32;346955;-71
2024/03/20 04:52:39;;;;;;;32.67;14.90;;;;;;;;;;4337729;32;318840;-71
2024/03/20 04:55:05;;;;;;;28.97;15.73;;;;;;;;;;4328137;32;318586;-71
2024/03/20 04:57:33;;;;;;;35.17;16.63;;;;;;;;;;4336635;32;318261;-71
2024/03/20 05:00:00;;;;;;;38.40;21.40;;;;;;;;;;4326325;32;318256;-72
2024/03/20 05:02:27;;;;;;;47.73;21.67;;;;;;;;;;4333843;32;322405;-72
2024/03/20 05:04:55;;;;;;;29.33;17.63;;;;;;;;;;4337465;32;328642;-72
2024/03/20 05:07:22;;;;;;;50.33;22.00;;;;;;;;;;4327636;32;318326;-71
2024/03/20 05:09:49;;;;;;;48.57;24.07;;;;;;;;;;4337292;32;317903;-70
2024/03/20 05:12:16;;;;;;;40.47;21.93;;;;;;;;;;4324544;32;338696;-70
2024/03/20 05:14:44;;;;;;;43.83;23.47;;;;;;;;;;4336975;32;317876;-71
2024/03/20 05:17:11;;;;;;;45.03;24.77;;;;;;;;;;4326676;32;318650;-71
2024/03/20 05:19:36;;;;;;;40.17;21.93;;;;;;;;;;4337433;32;318347;-70
2024/03/20 05:22:03;;;;;;;45.60;20.97;;;;;;;;;;4327554;32;318474;-70
2024/03/20 05:24:29;;;;;;;41.80;25.33;;;;;;;;;;4334556;32;318351;-70
2024/03/20 05:26:56;;;;;;;46.47;28.07;;;;;;;;;;4337103;32;318785;-72
2024/03/20 05:29:25;;;;;;;45.47;25.63;;;;;;;;;;4323415;32;420724;-70
2024/03/20 05:31:53;;;;;;;69.03;31.23;;;;;;;;;;4336755;32;318507;-70
2024/03/20 05:34:19;;;;;;;41.50;24.73;;;;;;;;;;4324258;32;318395;-71
2024/03/20 05:36:45;;;;;;;55.10;27.60;;;;;;;;;;4336412;32;345979;-71
2024/03/20 05:39:11;;;;;;;51.97;26.03;;;;;;;;;;4327203;32;318583;-71
2024/03/20 05:41:38;;;;;;;52.80;29.77;;;;;;;;;;4337147;32;318461;-72
2024/03/20 05:44:05;;;;;;;31.13;19.10;;;;;;;;;;4325419;32;317874;-71
2024/03/20 05:46:32;;;;;;;28.17;14.27;;;;;;;;;;4334514;32;318265;-71
2024/03/20 05:49:02;;;;;;;25.73;14.30;;;;;;;;;;4326178;32;328593;-70
2024/03/20 05:51:29;;;;;;;22.00;13.40;;;;;;;;;;4336214;32;318389;-69
2024/03/20 05:53:57;;;;;;;23.53;12.87;;;;;;;;;;4336706;32;319032;-69
2024/03/20 05:56:24;;;;;;;27.17;14.67;;;;;;;;;;4321036;32;418227;-70
2024/03/20 05:58:51;;;;;;;25.77;13.97;;;;;;;;;;4335687;32;318509;-72
2024/03/20 06:01:17;;;;;;;30.23;17.20;;;;;;;;;;4327239;32;318452;-70
2024/03/20 06:03:43;;;;;;;40.07;24.10;;;;;;;;;;4336281;32;318656;-72
2024/03/20 06:06:11;;;;;;;45.77;29.47;;;;;;;;;;4323456;32;318302;-68
2024/03/20 06:08:37;;;;;;;20.83;13.33;;;;;;;;;;4335254;32;318507;-70
2024/03/20 06:11:04;;;;;;;18.23;11.43;;;;;;;;;;4325123;32;318328;-70
2024/03/20 06:13:30;;;;;;;11.87;8.23;;;;;;;;;;4337440;32;318546;-70
2024/03/20 06:15:56;;;;;;;10.97;7.97;;;;;;;;;;4337008;32;317810;-72
2024/03/20 06:18:22;;;;;;;12.40;7.93;;;;;;;;;;4322071;32;417033;-70
2024/03/20 06:20:50;;;;;;;12.47;7.70;;;;;;;;;;4336365;32;317672;-70
2024/03/20 06:23:17;;;;;;;15.13;9.13;;;;;;;;;;4327062;32;317342;-71
2024/03/20 06:25:43;;;;;;;17.30;8.63;;;;;;;;;;4337098;32;317432;-69
2024/03/20 06:28:10;;;;;;;17.83;10.53;;;;;;;;;;4323708;32;317718;-69
2024/03/20 06:30:37;;;;;;;11.70;8.13;;;;;;;;;;4335945;32;318676;-70
2024/03/20 06:33:03;;;;;;;15.33;8.83;;;;;;;;;;4326636;32;317490;-70
2024/03/20 06:35:29;;;;;;;20.33;11.90;;;;;;;;;;4337039;32;317529;-69
2024/03/20 06:37:55;;;;;;;13.13;7.90;;;;;;;;;;4336993;32;318457;-69
2024/03/20 06:40:27;;;;;;;15.43;8.20;;;;;;;;;;4323937;32;374022;-70
2024/03/20 06:42:53;;;;;;;13.27;7.67;;;;;;;;;;4337823;32;325059;-70
2024/03/20 06:45:20;;;;;;;8.17;6.23;;;;;;;;;;4328762;32;331715;-71
2024/03/20 06:47:46;;;;;;;9.03;6.47;;;;;;;;;;4338738;32;316315;-71
2024/03/20 06:50:13;;;;;;;11.30;7.40;;;;;;;;;;4326604;32;316505;-70
2024/03/20 06:52:39;;;;;;;8.13;5.43;;;;;;;;;;4339266;32;317612;-70
2024/03/20 06:55:14;;;;;;;12.13;7.27;;;;;;;;;;4329569;32;316116;-69
2024/03/20 06:57:41;;;;;;;14.03;6.17;;;;;;;;;;4339352;32;317902;-70
2024/03/20 07:00:17;;;;;;;17.87;5.83;;;;;;;;;;4329342;32;317212;-69
2024/03/20 07:02:43;;;;;;;9.80;6.73;;;;;;;;;;4339435;32;317246;-69
2024/03/20 07:05:10;;;;;;;16.00;8.03;;;;;;;;;;4329256;32;316478;-69
2024/03/20 07:07:35;;;;;;;7.00;6.17;;;;;;;;;;4338530;32;317726;-69
2024/03/20 07:10:02;;;;;;;12.80;8.53;;;;;;;;;;4329379;32;316438;-70
2024/03/20 07:12:28;;;;;;;14.47;10.60;;;;;;;;;;4336177;32;317344;-69
2024/03/20 07:14:56;;;;;;;11.10;7.00;;;;;;;;;;4337431;32;318380;-73
2024/03/20 07:17:22;;;;;;;16.53;6.87;;;;;;;;;;4325205;32;416193;-73
2024/03/20 07:19:53;;;;;;;8.93;5.23;;;;;;;;;;4338095;32;317190;-71
2024/03/20 07:22:19;;;;;;;8.20;5.87;;;;;;;;;;4326389;32;334448;-72
2024/03/20 07:24:45;;;;;;;8.47;5.40;;;;;;;;;;4338778;32;316136;-70
2024/03/20 07:27:11;;;;;;;10.53;7.47;;;;;;;;;;4327276;32;316516;-72
2024/03/20 07:29:38;;;;;;;10.60;6.50;;;;;;;;;;4337792;32;317403;-71
2024/03/20 07:32:07;;;;;;;10.10;6.27;;;;;;;;;;4326456;32;356630;-72
2024/03/20 07:34:34;;;;;;;14.97;7.13;;;;;;;;;;4337723;32;317499;-74
2024/03/20 07:37:00;;;;;;;10.83;7.23;;;;;;;;;;4326023;32;330397;-71
2024/03/20 07:39:32;;;;;;;8.97;6.17;;;;;;;;;;4337292;32;317453;-71
2024/03/20 07:41:58;;;;;;;9.80;6.60;;;;;;;;;;4328504;32;316999;-70
2024/03/20 07:44:25;;;;;;;10.73;7.30;;;;;;;;;;4335142;32;316329;-71
2024/03/20 07:46:51;;;;;;;15.37;5.27;;;;;;;;;;4338674;32;317442;-71
2024/03/20 07:49:19;;;;;;;11.03;6.87;;;;;;;;;;4327741;32;317304;-71
2024/03/20 07:51:45;;;;;;;12.60;8.73;;;;;;;;;;4338240;32;317668;-71
2024/03/20 07:54:12;;;;;;;10.17;7.23;;;;;;;;;;4326485;32;317555;-71
2024/03/20 07:56:38;;;;;;;12.90;8.27;;;;;;;;;;4337874;32;317322;-70
2024/03/20 07:59:05;;;;;;;12.73;7.27;;;;;;;;;;4328600;32;317608;-70
2024/03/20 08:01:30;;;;;;;14.10;8.00;;;;;;;;;;4337967;32;317356;-70
2024/03/20 08:03:58;;;;;;;9.10;6.20;;;;;;;;;;4334837;32;317532;-71
2024/03/20 08:06:25;;;;;;;10.23;6.23;;;;;;;;;;4333733;32;316852;-69
2024/03/20 08:08:52;;;;;;;6.67;4.50;;;;;;;;;;4337398;32;316760;-70
2024/03/20 08:11:18;;;;;;;9.23;5.73;;;;;;;;;;4326378;32;316571;-70
2024/03/20 08:13:45;;;;;;;8.57;6.00;;;;;;;;;;4336959;32;316262;-70
2024/03/20 08:16:11;;;;;;;7.93;5.73;;;;;;;;;;4326079;32;315586;-70
2024/03/20 08:18:37;;;;;;;8.30;5.70;;;;;;;;;;4338465;32;315416;-70
2024/03/20 08:21:04;;;;;;;8.70;6.03;;;;;;;;;;4327000;32;316587;-70
2024/03/20 08:23:32;;;;;;;12.40;7.87;;;;;;;;;;4337333;32;316146;-69
2024/03/20 08:25:57;;;;;;;9.77;6.73;;;;;;;;;;4327911;32;318414;-72
2024/03/20 08:28:24;;;;;;;11.57;7.13;;;;;;;;;;4335621;32;317250;-70
2024/03/20 08:30:50;;;;;;;6.37;5.00;;;;;;;;;;4336472;32;318220;-70
2024/03/20 08:33:17;;;;;;;8.10;6.10;;;;;;;;;;4325880;32;317312;-70
2024/03/20 08:35:43;;;;;;;7.20;4.93;;;;;;;;;;4337538;32;316612;-69
2024/03/20 08:38:10;;;;;;;7.03;5.13;;;;;;;;;;4325719;32;317436;-69
2024/03/20 08:40:37;;;;;;;9.93;6.23;;;;;;;;;;4337586;32;317310;-69
2024/03/20 08:43:04;;;;;;;7.00;4.83;;;;;;;;;;4328266;32;317732;-69
2024/03/20 08:45:30;;;;;;;8.13;4.63;;;;;;;;;;4337790;32;317915;-70
2024/03/20 08:47:57;;;;;;;12.93;7.83;;;;;;;;;;4335198;32;337396;-70
2024/03/20 08:50:24;;;;;;;8.40;5.40;;;;;;;;;;4321685;32;417581;-69
2024/03/20 08:52:51;;;;;;;9.57;6.43;;;;;;;;;;4337098;32;316861;-72
2024/03/20 08:55:16;;;;;;;7.33;5.63;;;;;;;;;;4327774;32;316963;-71
2024/03/20 08:57:44;;;;;;;11.70;9.13;;;;;;;;;;4337589;32;316379;-69
2024/03/20 09:00:11;;;;;;;7.30;4.60;;;;;;;;;;4324095;32;318297;-70
2024/03/20 09:02:38;;;;;;;6.73;3.67;;;;;;;;;;4335703;32;317355;-70
2024/03/20 09:05:05;;;;;;;4.93;3.93;;;;;;;;;;4326603;32;317455;-72
2024/03/20 09:07:31;;;;;;;7.23;4.87;;;;;;;;;;4337497;32;316691;-70
2024/03/20 09:09:57;;;;;;;4.03;3.60;;;;;;;;;;4326680;32;317305;-69
2024/03/20 09:12:24;;;;;;;9.20;6.07;;;;;;;;;;4333690;32;319252;-70
2024/03/20 09:14:51;;;;;;;4.47;3.47;;;;;;;;;;4337417;32;316624;-71
2024/03/20 09:17:18;;;;;;;8.90;5.03;;;;;;;;;;4327147;32;336501;-70
2024/03/20 09:19:44;;;;;;;5.50;4.00;;;;;;;;;;4337030;32;317941;-70
2024/03/20 09:22:11;;;;;;;6.67;4.40;;;;;;;;;;4325139;32;316598;-69
2024/03/20 09:24:37;;;;;;;5.23;4.57;;;;;;;;;;4336138;32;316657;-70
2024/03/20 09:27:04;;;;;;;5.17;4.17;;;;;;;;;;4327113;32;317209;-70
2024/03/20 09:29:29;;;;;;;6.70;3.57;;;;;;;;;;4337493;32;317664;-72
2024/03/20 09:31:58;;;;;;;6.00;4.00;;;;;;;;;;4336741;32;316599;-71
2024/03/20 09:34:26;;;;;;;14.17;4.13;;;;;;;;;;4321365;32;418351;-72
2024/03/20 09:36:55;;;;;;;5.07;4.20;;;;;;;;;;4337288;32;318461;-70
2024/03/20 09:39:21;;;;;;;5.87;3.63;;;;;;;;;;4325862;32;317134;-69
2024/03/20 09:41:49;;;;;;;7.27;3.53;;;;;;;;;;4337010;32;317508;-70
2024/03/20 09:44:17;;;;;;;14.70;5.10;;;;;;;;;;4325109;32;317454;-72
2024/03/20 09:46:43;;;;;;;9.33;4.40;;;;;;;;;;4337029;32;318262;-71
2024/03/20 09:49:13;;;;;;;13.13;7.30;;;;;;;;;;4325139;32;316549;-69
2024/03/20 09:51:39;;;;;;;4.37;3.40;;;;;;;;;;4337659;32;318496;-70
2024/03/20 09:54:06;;;;;;;6.47;3.93;;;;;;;;;;4326959;32;317206;-70
2024/03/20 09:56:33;;;;;;;7.37;4.53;;;;;;;;;;4334620;32;317846;-69
2024/03/20 09:59:00;;;;;;;5.47;4.53;;;;;;;;;;4327216;32;317164;-72
2024/03/20 10:01:26;;;;;;;5.00;3.97;;;;;;;;;;4337181;32;317308;-70
2024/03/20 10:03:54;;;;;;;4.17;3.50;;;;;;;;;;4337210;32;317242;-70
2024/03/20 10:06:22;;;;;;;8.67;5.10;;;;;;;;;;4325427;32;317660;-70
2024/03/20 10:08:50;;;;;;;6.87;4.80;;;;;;;;;;4337223;32;316619;-70
2024/03/20 10:11:16;;;;;;;7.10;5.30;;;;;;;;;;4325800;32;317425;-70
2024/03/20 10:13:43;;;;;;;5.83;3.77;;;;;;;;;;4339067;32;316615;-70
2024/03/20 10:16:09;;;;;;;8.03;5.97;;;;;;;;;;4328093;32;316719;-70
2024/03/20 10:18:37;;;;;;;5.63;3.97;;;;;;;;;;4337538;32;316546;-70
2024/03/20 10:21:03;;;;;;;7.27;4.93;;;;;;;;;;4328369;32;317188;-69
2024/03/20 10:23:31;;;;;;;13.97;9.10;;;;;;;;;;4331973;32;316665;-70
2024/03/20 10:25:57;;;;;;;6.50;4.23;;;;;;;;;;4329557;32;318180;-70
2024/03/20 10:28:29;;;;;;;6.17;4.00;;;;;;;;;;4335592;32;350343;-72
2024/03/20 10:31:00;;;;;;;6.20;4.47;;;;;;;;;;4339434;32;317278;-71
2024/03/20 10:33:28;;;;;;;3.20;2.83;;;;;;;;;;4326375;32;417261;-70
2024/03/20 10:35:54;;;;;;;4.00;2.93;;;;;;;;;;4339565;32;317310;-71
2024/03/20 10:38:22;;;;;;;6.83;4.83;;;;;;;;;;4326976;32;317223;-70
2024/03/20 10:40:51;;;;;;;5.27;3.73;;;;;;;;;;4339238;32;316770;-72
2024/03/20 10:43:20;;;;;;;6.43;4.73;;;;;;;;;;4329926;32;317519;-70
2024/03/20 10:45:48;;;;;;;3.43;3.13;;;;;;;;;;4339375;32;317238;-71
2024/03/20 10:48:17;;;;;;;7.03;2.90;;;;;;;;;;4326385;32;317262;-70
2024/03/20 10:50:46;;;;;;;5.67;3.00;;;;;;;;;;4339505;32;317399;-70
2024/03/20 10:53:14;;;;;;;4.53;3.23;;;;;;;;;;4329343;32;317238;-70
2024/03/20 10:55:41;;;;;;;3.73;2.97;;;;;;;;;;4339288;32;316725;-70
2024/03/20 10:58:11;;;;;;;7.70;5.00;;;;;;;;;;4329269;32;317373;-70
2024/03/20 11:00:40;;;;;;;4.00;3.37;;;;;;;;;;4339213;32;315588;-73
2024/03/20 11:03:39;;;;;;;5.77;3.27;;;;;;;;;;4329419;32;317592;-70
2024/03/20 11:06:44;;;;;;;3.37;2.90;;;;;;;;;;4329768;32;317177;-70
2024/03/20 11:09:22;;;;;;;3.50;2.60;;;;;;;;;;4328342;32;317456;-72
2024/03/20 11:11:50;;;;;;;3.97;2.70;;;;;;;;;;4339082;32;317250;-71
2024/03/20 11:14:26;;;;;;;5.03;2.87;;;;;;;;;;4326937;32;317250;-71
2024/03/20 11:16:54;;;;;;;5.33;2.70;;;;;;;;;;4337368;32;341420;-71
2024/03/20 11:19:20;;;;;;;5.00;3.30;;;;;;;;;;4328280;32;317257;-72
2024/03/20 11:21:49;;;;;;;8.60;2.50;;;;;;;;;;4338847;32;317333;-70
2024/03/20 11:24:15;;;;;;;5.50;2.27;;;;;;;;;;4326371;32;317355;-69
2024/03/20 11:26:42;;;;;;;3.30;2.50;;;;;;;;;;4338779;32;317108;-70
2024/03/20 11:29:10;;;;;;;3.60;2.67;;;;;;;;;;4328250;32;317395;-70
2024/03/20 11:31:38;;;;;;;4.87;3.47;;;;;;;;;;4338125;32;316710;-70
2024/03/20 11:34:05;;;;;;;3.20;2.63;;;;;;;;;;4328809;32;317114;-70
2024/03/20 11:36:32;;;;;;;3.83;2.80;;;;;;;;;;4336350;32;317640;-70
2024/03/20 11:38:58;;;;;;;3.35;2.42;;;;;;;;;;4327439;32;317588;-72
2024/03/20 11:41:24;;;;;;;8.50;3.70;;;;;;;;;;4337279;32;317287;-70
2024/03/20 11:43:50;;;;;;;3.63;2.80;;;;;;;;;;4337398;32;317298;-69
2024/03/20 11:46:20;;;;;;;5.30;2.93;;;;;;;;;;4325434;32;317441;-69
2024/03/20 11:48:47;;;;;;;8.32;5.47;;;;;;;;;;4337275;32;316666;-69
2024/03/20 11:51:15;;;;;;;5.73;3.33;;;;;;;;;;4327075;32;324458;-69
2024/03/20 11:53:41;;;;;;;3.00;2.20;;;;;;;;;;4338313;32;317487;-70
2024/03/20 11:56:10;;;;;;;3.47;2.87;;;;;;;;;;4328486;32;317623;-69
2024/03/20 11:58:36;;;;;;;3.43;2.07;;;;;;;;;;4338035;32;316676;-72
2024/03/20 12:01:04;;;;;;;4.40;3.10;;;;;;;;;;4328752;32;317413;-69
2024/03/20 12:03:33;;;;;;;3.33;3.03;;;;;;;;;;4338490;32;317300;-71
2024/03/20 12:06:12;;;;;;;4.50;2.95;;;;;;;;;;4326885;32;380442;-69
2024/03/20 12:08:38;;;;;;;3.00;2.13;;;;;;;;;;4338165;32;317280;-72
2024/03/20 12:11:20;;;;;;;4.28;2.35;;;;;;;;;;4328719;32;317147;-69
2024/03/20 12:13:46;;;;;;;5.68;1.92;;;;;;;;;;4335935;32;317446;-70
2024/03/20 12:16:13;;;;;;;5.73;1.90;;;;;;;;;;4324205;32;349556;-71
2024/03/20 12:18:39;;;;;;;4.68;3.05;;;;;;;;;;4338460;32;317329;-71
2024/03/20 12:21:06;;;;;;;3.80;3.12;;;;;;;;;;4328041;32;317332;-70
2024/03/20 12:23:34;;;;;;;2.47;1.92;;;;;;;;;;4337500;32;329507;-70
2024/03/20 12:26:05;;;;;;;3.05;2.00;;;;;;;;;;4323724;32;317175;-71
2024/03/20 12:28:31;;;;;;;2.62;2.05;;;;;;;;;;4335685;32;317274;-72
2024/03/20 12:30:58;;;;;;;4.93;2.80;;;;;;;;;;4326722;32;317040;-70
2024/03/20 12:33:25;;;;;;;9.85;2.95;;;;;;;;;;4337677;32;317538;-71
2024/03/20 12:35:52;;;;;;;8.13;2.53;;;;;;;;;;4336203;32;317361;-70
2024/03/20 12:38:18;;;;;;;5.25;1.70;;;;;;;;;;4324828;32;317568;-72
2024/03/20 12:40:46;;;;;;;7.18;4.70;;;;;;;;;;4337980;32;316528;-70
2024/03/20 12:43:14;;;;;;;7.05;2.30;;;;;;;;;;4327975;32;317809;-70
2024/03/20 12:45:40;;;;;;;3.33;2.30;;;;;;;;;;4336886;32;317394;-69
2024/03/20 12:48:10;;;;;;;5.07;2.00;;;;;;;;;;4326323;32;317259;-70
2024/03/20 12:50:36;;;;;;;7.97;1.90;;;;;;;;;;4324139;32;317295;-70
2024/03/20 12:53:03;;;;;;;4.28;2.95;;;;;;;;;;4328076;32;317480;-69
2024/03/20 12:55:29;;;;;;;3.30;2.35;;;;;;;;;;4338013;32;317884;-70
2024/03/20 12:57:57;;;;;;;2.80;2.10;;;;;;;;;;4337878;32;317280;-69
2024/03/20 13:00:23;;;;;;;5.65;4.00;;;;;;;;;;4323081;32;416717;-71
2024/03/20 13:02:50;;;;;;;2.92;1.90;;;;;;;;;;4337735;32;316720;-70
2024/03/20 13:05:17;;;;;;;3.65;2.22;;;;;;;;;;4327222;32;317129;-72
2024/03/20 13:07:44;;;;;;;3.30;1.87;;;;;;;;;;4337474;32;316730;-70
2024/03/20 13:10:11;;;;;;;4.70;2.25;;;;;;;;;;4325444;32;317645;-70
2024/03/20 13:12:38;;;;;;;4.03;2.10;;;;;;;;;;4336757;32;317682;-70
2024/03/20 13:15:06;;;;;;;6.37;2.22;;;;;;;;;;4326354;32;317348;-70
2024/03/20 13:17:35;;;;;;;2.85;2.00;;;;;;;;;;4336642;32;317379;-70
2024/03/20 13:20:00;;;;;;;3.97;3.37;;;;;;;;;;4324785;32;316997;-73
2024/03/20 13:22:27;;;;;;;3.30;2.87;;;;;;;;;;4332535;32;334524;-70
2024/03/20 13:24:53;;;;;;;2.87;1.90;;;;;;;;;;4337449;32;317112;-69
2024/03/20 13:27:21;;;;;;;2.72;1.92;;;;;;;;;;4327449;32;326464;-70
2024/03/20 13:29:49;;;;;;;2.87;1.90;;;;;;;;;;4335413;32;317373;-69
2024/03/20 13:32:20;;;;;;;2.20;1.67;;;;;;;;;;4324352;32;317189;-71
2024/03/20 13:34:46;;;;;;;2.75;1.98;;;;;;;;;;4337242;32;317318;-73
2024/03/20 13:37:16;;;;;;;2.58;2.17;;;;;;;;;;4327994;32;317225;-69
2024/03/20 13:39:49;;;;;;;5.20;2.22;;;;;;;;;;4335970;32;316366;-69
2024/03/20 13:42:33;;;;;;;3.12;2.33;;;;;;;;;;4325466;32;317090;-69
2024/03/20 13:45:00;;;;;;;3.00;1.67;;;;;;;;;;4327503;32;317461;-71
2024/03/20 13:47:28;;;;;;;4.05;1.70;;;;;;;;;;4337822;32;316847;-69
2024/03/20 13:49:54;;;;;;;2.60;1.77;;;;;;;;;;4342152;32;317161;-71
2024/03/20 13:52:21;;;;;;;3.22;2.33;;;;;;;;;;4328830;32;317276;-70
2024/03/20 13:54:47;;;;;;;2.60;1.87;;;;;;;;;;4341994;32;316420;-71
2024/03/20 13:57:14;;;;;;;6.05;1.98;;;;;;;;;;4332605;32;317161;-70
2024/03/20 13:59:41;;;;;;;1.73;1.50;;;;;;;;;;4342333;32;317382;-70
2024/03/20 14:02:28;;;;;;;6.43;2.08;;;;;;;;;;4331177;32;317301;-70
2024/03/20 14:04:54;;;;;;;2.62;1.95;;;;;;;;;;4341776;32;317173;-71
2024/03/20 14:07:22;;;;;;;2.90;1.62;;;;;;;;;;4332538;32;317468;-70
2024/03/20 14:09:49;;;;;;;5.70;2.20;;;;;;;;;;4341993;32;317288;-70
2024/03/20 14:12:17;;;;;;;7.57;3.12;;;;;;;;;;4329486;32;317536;-70
2024/03/20 14:14:43;;;;;;;3.37;2.17;;;;;;;;;;4341905;32;317355;-71
2024/03/20 14:17:18;;;;;;;4.18;2.72;;;;;;;;;;4332509;32;317439;-69
2024/03/20 14:19:46;;;;;;;15.98;2.95;;;;;;;;;;4342101;32;317151;-69